sensor_id;sensor_type;location;lat;lon;timestamp;P1;durP1;ratioP1;P2;durP2;ratioP2
67554;SDS011;54385;53.516;49.456;2022-09-06T00:00:56;3.90;;;2.05;;
67554;SDS011;54385;53.516;49.456;2022-09-06T00:03:23;2.72;;;2.15;;
67554;SDS011;54385;53.516;49.456;2022-09-06T00:05:52;8.10;;;2.05;;
67554;SDS011;54385;53.516;49.456;2022-09-06T00:10:44;7.32;;;2.45;;
67554;SDS011;54385;53.516;49.456;2022-09-06T00:15:38;3.90;;;1.92;;
67554;SDS011;54385;53.516;49.456;2022-09-06T00:18:05;3.17;;;1.95;;
67554;SDS011;54385;53.516;49.456;2022-09-06T00:20:32;6.90;;;2.00;;
67554;SDS011;54385;53.516;49.456;2022-09-06T00:23:01;4.22;;;2.17;;
67554;SDS011;54385;53.516;49.456;2022-09-06T00:25:29;3.95;;;1.88;;
67554;SDS011;54385;53.516;49.456;2022-09-06T00:27:57;4.68;;;2.10;;
67554;SDS011;54385;53.516;49.456;2022-09-06T00:30:26;2.85;;;1.75;;
67554;SDS011;54385;53.516;49.456;2022-09-06T00:32:54;3.08;;;1.83;;
67554;SDS011;54385;53.516;49.456;2022-09-06T00:35:21;2.70;;;1.88;;
67554;SDS011;54385;53.516;49.456;2022-09-06T00:37:49;1.77;;;1.17;;
67554;SDS011;54385;53.516;49.456;2022-09-06T00:40:16;1.60;;;1.10;;
67554;SDS011;54385;53.516;49.456;2022-09-06T00:42:43;4.63;;;1.30;;
67554;SDS011;54385;53.516;49.456;2022-09-06T00:47:36;2.05;;;1.30;;
67554;SDS011;54385;53.516;49.456;2022-09-06T00:50:05;1.90;;;1.30;;
67554;SDS011;54385;53.516;49.456;2022-09-06T00:52:33;2.20;;;1.30;;
67554;SDS011;54385;53.516;49.456;2022-09-06T00:55:00;2.22;;;1.60;;
67554;SDS011;54385;53.516;49.456;2022-09-06T00:57:27;3.65;;;1.35;;
67554;SDS011;54385;53.516;49.456;2022-09-06T00:59:56;2.30;;;1.60;;
67554;SDS011;54385;53.516;49.456;2022-09-06T01:02:24;1.77;;;1.50;;
67554;SDS011;54385;53.516;49.456;2022-09-06T01:04:51;4.68;;;1.80;;
67554;SDS011;54385;53.516;49.456;2022-09-06T01:16:14;4.30;;;1.92;;
67554;SDS011;54385;53.516;49.456;2022-09-06T01:21:54;5.28;;;2.03;;
67554;SDS011;54385;53.516;49.456;2022-09-06T01:24:52;3.78;;;1.83;;
67554;SDS011;54385;53.516;49.456;2022-09-06T01:30:27;4.65;;;2.20;;
67554;SDS011;54385;53.516;49.456;2022-09-06T01:38:09;4.25;;;2.10;;
67554;SDS011;54385;53.516;49.456;2022-09-06T01:40:35;4.35;;;1.73;;
67554;SDS011;54385;53.516;49.456;2022-09-06T01:45:33;3.00;;;2.00;;
67554;SDS011;54385;53.516;49.456;2022-09-06T01:48:23;4.47;;;2.40;;
67554;SDS011;54385;53.516;49.456;2022-09-06T01:54:13;6.38;;;2.88;;
67554;SDS011;54385;53.516;49.456;2022-09-06T01:57:20;6.22;;;2.78;;
67554;SDS011;54385;53.516;49.456;2022-09-06T02:08:11;8.40;;;5.50;;
67554;SDS011;54385;53.516;49.456;2022-09-06T02:10:46;12.07;;;4.85;;
67554;SDS011;54385;53.516;49.456;2022-09-06T02:13:21;8.13;;;4.57;;
67554;SDS011;54385;53.516;49.456;2022-09-06T02:15:51;6.40;;;3.20;;
67554;SDS011;54385;53.516;49.456;2022-09-06T02:18:25;12.90;;;4.70;;
67554;SDS011;54385;53.516;49.456;2022-09-06T02:21:15;4.90;;;3.08;;
67554;SDS011;54385;53.516;49.456;2022-09-06T02:23:45;5.85;;;2.92;;
67554;SDS011;54385;53.516;49.456;2022-09-06T02:26:16;5.85;;;3.60;;
67554;SDS011;54385;53.516;49.456;2022-09-06T02:28:46;17.60;;;12.07;;
67554;SDS011;54385;53.516;49.456;2022-09-06T02:31:24;6.20;;;4.22;;
67554;SDS011;54385;53.516;49.456;2022-09-06T02:33:54;11.80;;;5.88;;
67554;SDS011;54385;53.516;49.456;2022-09-06T02:36:22;9.63;;;5.53;;
67554;SDS011;54385;53.516;49.456;2022-09-06T02:38:49;8.65;;;4.63;;
67554;SDS011;54385;53.516;49.456;2022-09-06T02:41:16;7.28;;;3.75;;
67554;SDS011;54385;53.516;49.456;2022-09-06T02:43:47;10.38;;;4.43;;
67554;SDS011;54385;53.516;49.456;2022-09-06T02:46:14;7.32;;;3.85;;
67554;SDS011;54385;53.516;49.456;2022-09-06T02:48:40;6.15;;;3.65;;
67554;SDS011;54385;53.516;49.456;2022-09-06T02:53:33;5.32;;;3.33;;
67554;SDS011;54385;53.516;49.456;2022-09-06T02:56:01;6.03;;;3.08;;
67554;SDS011;54385;53.516;49.456;2022-09-06T02:58:27;5.20;;;3.03;;
67554;SDS011;54385;53.516;49.456;2022-09-06T03:03:20;7.45;;;3.03;;
67554;SDS011;54385;53.516;49.456;2022-09-06T03:05:48;6.47;;;3.20;;
67554;SDS011;54385;53.516;49.456;2022-09-06T03:08:16;3.97;;;3.03;;
67554;SDS011;54385;53.516;49.456;2022-09-06T03:10:50;5.10;;;3.13;;
67554;SDS011;54385;53.516;49.456;2022-09-06T03:13:18;5.18;;;3.10;;
67554;SDS011;54385;53.516;49.456;2022-09-06T03:15:48;5.85;;;3.40;;
67554;SDS011;54385;53.516;49.456;2022-09-06T03:18:18;6.13;;;3.50;;
67554;SDS011;54385;53.516;49.456;2022-09-06T03:20:45;5.72;;;3.35;;
67554;SDS011;54385;53.516;49.456;2022-09-06T03:23:14;5.03;;;4.03;;
67554;SDS011;54385;53.516;49.456;2022-09-06T03:25:41;6.22;;;3.90;;
67554;SDS011;54385;53.516;49.456;2022-09-06T03:28:07;6.72;;;4.07;;
67554;SDS011;54385;53.516;49.456;2022-09-06T03:33:00;5.45;;;4.07;;
67554;SDS011;54385;53.516;49.456;2022-09-06T03:35:26;7.70;;;4.15;;
67554;SDS011;54385;53.516;49.456;2022-09-06T03:37:53;4.47;;;3.60;;
67554;SDS011;54385;53.516;49.456;2022-09-06T03:40:19;6.90;;;4.38;;
67554;SDS011;54385;53.516;49.456;2022-09-06T03:42:46;9.60;;;3.40;;
67554;SDS011;54385;53.516;49.456;2022-09-06T03:45:13;6.68;;;2.80;;
67554;SDS011;54385;53.516;49.456;2022-09-06T03:47:39;6.13;;;2.63;;
67554;SDS011;54385;53.516;49.456;2022-09-06T03:50:10;5.47;;;2.72;;
67554;SDS011;54385;53.516;49.456;2022-09-06T03:52:39;6.00;;;3.15;;
67554;SDS011;54385;53.516;49.456;2022-09-06T03:55:07;5.78;;;2.83;;
67554;SDS011;54385;53.516;49.456;2022-09-06T03:57:34;8.15;;;4.10;;
67554;SDS011;54385;53.516;49.456;2022-09-06T04:02:26;8.98;;;4.30;;
67554;SDS011;54385;53.516;49.456;2022-09-06T04:07:22;19.45;;;5.97;;
67554;SDS011;54385;53.516;49.456;2022-09-06T04:09:49;20.15;;;6.10;;
67554;SDS011;54385;53.516;49.456;2022-09-06T04:14:42;28.05;;;7.38;;
67554;SDS011;54385;53.516;49.456;2022-09-06T04:17:09;33.13;;;8.75;;
67554;SDS011;54385;53.516;49.456;2022-09-06T04:19:45;16.80;;;8.82;;
67554;SDS011;54385;53.516;49.456;2022-09-06T04:22:12;16.90;;;7.85;;
67554;SDS011;54385;53.516;49.456;2022-09-06T04:24:39;14.60;;;8.32;;
67554;SDS011;54385;53.516;49.456;2022-09-06T04:29:31;8.07;;;3.47;;
67554;SDS011;54385;53.516;49.456;2022-09-06T04:37:50;4.07;;;2.20;;
67554;SDS011;54385;53.516;49.456;2022-09-06T04:42:42;6.35;;;2.08;;
67554;SDS011;54385;53.516;49.456;2022-09-06T04:47:35;3.25;;;2.10;;
67554;SDS011;54385;53.516;49.456;2022-09-06T04:50:02;5.05;;;2.65;;
67554;SDS011;54385;53.516;49.456;2022-09-06T04:52:28;5.40;;;1.90;;
67554;SDS011;54385;53.516;49.456;2022-09-06T04:57:21;4.35;;;1.75;;
67554;SDS011;54385;53.516;49.456;2022-09-06T05:02:13;2.72;;;1.77;;
67554;SDS011;54385;53.516;49.456;2022-09-06T05:07:11;5.75;;;2.53;;
67554;SDS011;54385;53.516;49.456;2022-09-06T05:09:37;2.95;;;1.42;;
67554;SDS011;54385;53.516;49.456;2022-09-06T05:14:30;2.33;;;1.70;;
67554;SDS011;54385;53.516;49.456;2022-09-06T05:16:56;5.53;;;1.98;;
67554;SDS011;54385;53.516;49.456;2022-09-06T05:19:23;4.82;;;1.80;;
67554;SDS011;54385;53.516;49.456;2022-09-06T05:21:50;2.35;;;1.50;;
67554;SDS011;54385;53.516;49.456;2022-09-06T05:25:06;4.90;;;1.73;;
67554;SDS011;54385;53.516;49.456;2022-09-06T05:27:34;11.55;;;3.28;;
67554;SDS011;54385;53.516;49.456;2022-09-06T05:30:01;3.78;;;1.55;;
67554;SDS011;54385;53.516;49.456;2022-09-06T05:32:28;6.75;;;1.80;;
67554;SDS011;54385;53.516;49.456;2022-09-06T05:34:55;3.53;;;1.55;;
67554;SDS011;54385;53.516;49.456;2022-09-06T05:37:22;3.38;;;1.55;;
67554;SDS011;54385;53.516;49.456;2022-09-06T05:39:49;2.72;;;1.73;;
67554;SDS011;54385;53.516;49.456;2022-09-06T05:42:17;5.60;;;1.83;;
67554;SDS011;54385;53.516;49.456;2022-09-06T05:44:46;4.95;;;1.63;;
67554;SDS011;54385;53.516;49.456;2022-09-06T05:47:13;3.60;;;1.90;;
67554;SDS011;54385;53.516;49.456;2022-09-06T05:49:40;4.13;;;1.80;;
67554;SDS011;54385;53.516;49.456;2022-09-06T05:52:06;3.88;;;1.80;;
67554;SDS011;54385;53.516;49.456;2022-09-06T05:54:33;6.00;;;1.83;;
67554;SDS011;54385;53.516;49.456;2022-09-06T05:57:00;4.15;;;1.40;;
67554;SDS011;54385;53.516;49.456;2022-09-06T05:59:27;2.72;;;1.55;;
67554;SDS011;54385;53.516;49.456;2022-09-06T06:01:53;4.43;;;1.55;;
67554;SDS011;54385;53.516;49.456;2022-09-06T06:04:20;3.70;;;1.50;;
67554;SDS011;54385;53.516;49.456;2022-09-06T06:06:48;5.97;;;1.55;;
67554;SDS011;54385;53.516;49.456;2022-09-06T06:09:15;3.75;;;1.75;;
67554;SDS011;54385;53.516;49.456;2022-09-06T06:11:42;1.15;;;0.80;;
67554;SDS011;54385;53.516;49.456;2022-09-06T06:14:09;4.75;;;0.90;;
67554;SDS011;54385;53.516;49.456;2022-09-06T06:16:39;6.22;;;1.10;;
67554;SDS011;54385;53.516;49.456;2022-09-06T06:19:06;1.88;;;1.00;;
67554;SDS011;54385;53.516;49.456;2022-09-06T06:21:35;2.97;;;1.00;;
67554;SDS011;54385;53.516;49.456;2022-09-06T06:24:08;3.75;;;1.52;;
67554;SDS011;54385;53.516;49.456;2022-09-06T06:26:35;3.83;;;1.30;;
67554;SDS011;54385;53.516;49.456;2022-09-06T06:29:02;5.47;;;3.22;;
67554;SDS011;54385;53.516;49.456;2022-09-06T06:31:34;1.90;;;1.27;;
67554;SDS011;54385;53.516;49.456;2022-09-06T06:34:02;1.67;;;1.10;;
67554;SDS011;54385;53.516;49.456;2022-09-06T06:36:29;3.35;;;1.10;;
67554;SDS011;54385;53.516;49.456;2022-09-06T06:38:59;3.63;;;1.10;;
67554;SDS011;54385;53.516;49.456;2022-09-06T06:41:30;2.35;;;0.88;;
67554;SDS011;54385;53.516;49.456;2022-09-06T06:43:58;3.38;;;1.15;;
67554;SDS011;54385;53.516;49.456;2022-09-06T06:46:27;7.47;;;1.67;;
67554;SDS011;54385;53.516;49.456;2022-09-06T06:48:56;3.30;;;1.20;;
67554;SDS011;54385;53.516;49.456;2022-09-06T06:51:23;3.00;;;1.50;;
67554;SDS011;54385;53.516;49.456;2022-09-06T06:53:52;2.28;;;1.27;;
67554;SDS011;54385;53.516;49.456;2022-09-06T06:56:22;4.30;;;1.60;;
67554;SDS011;54385;53.516;49.456;2022-09-06T06:58:58;6.63;;;1.88;;
67554;SDS011;54385;53.516;49.456;2022-09-06T07:01:27;6.80;;;1.70;;
67554;SDS011;54385;53.516;49.456;2022-09-06T07:03:55;3.45;;;1.10;;
67554;SDS011;54385;53.516;49.456;2022-09-06T07:06:22;3.67;;;1.20;;
67554;SDS011;54385;53.516;49.456;2022-09-06T07:08:49;1.60;;;0.75;;
67554;SDS011;54385;53.516;49.456;2022-09-06T07:11:16;1.42;;;0.82;;
67554;SDS011;54385;53.516;49.456;2022-09-06T07:13:44;1.70;;;1.00;;
67554;SDS011;54385;53.516;49.456;2022-09-06T07:44:49;4.05;;;0.93;;
67554;SDS011;54385;53.516;49.456;2022-09-06T07:47:31;2.30;;;0.93;;
67554;SDS011;54385;53.516;49.456;2022-09-06T07:59:22;1.05;;;0.60;;
67554;SDS011;54385;53.516;49.456;2022-09-06T08:10:42;0.52;;;0.50;;
67554;SDS011;54385;53.516;49.456;2022-09-06T08:13:19;1.08;;;0.75;;
67554;SDS011;54385;53.516;49.456;2022-09-06T08:15:47;0.63;;;0.50;;
67554;SDS011;54385;53.516;49.456;2022-09-06T08:18:20;1.92;;;0.70;;
67554;SDS011;54385;53.516;49.456;2022-09-06T08:20:52;2.38;;;0.65;;
67554;SDS011;54385;53.516;49.456;2022-09-06T08:27:33;1.73;;;0.77;;
67554;SDS011;54385;53.516;49.456;2022-09-06T08:49:24;2.63;;;0.98;;
67554;SDS011;54385;53.516;49.456;2022-09-06T09:10:16;2.83;;;1.50;;
67554;SDS011;54385;53.516;49.456;2022-09-06T09:12:48;6.90;;;1.80;;
67554;SDS011;54385;53.516;49.456;2022-09-06T09:15:16;14.43;;;4.20;;
67554;SDS011;54385;53.516;49.456;2022-09-06T09:17:44;12.13;;;4.40;;
67554;SDS011;54385;53.516;49.456;2022-09-06T09:20:16;4.88;;;1.70;;
67554;SDS011;54385;53.516;49.456;2022-09-06T09:22:45;2.08;;;1.25;;
67554;SDS011;54385;53.516;49.456;2022-09-06T09:25:20;11.38;;;2.20;;
67554;SDS011;54385;53.516;49.456;2022-09-06T09:27:58;4.07;;;1.92;;
67554;SDS011;54385;53.516;49.456;2022-09-06T09:30:26;4.97;;;2.22;;
67554;SDS011;54385;53.516;49.456;2022-09-06T09:33:22;4.63;;;1.58;;
67554;SDS011;54385;53.516;49.456;2022-09-06T09:35:54;3.47;;;1.20;;
67554;SDS011;54385;53.516;49.456;2022-09-06T09:38:27;5.00;;;1.42;;
67554;SDS011;54385;53.516;49.456;2022-09-06T09:41:05;3.90;;;1.35;;
67554;SDS011;54385;53.516;49.456;2022-09-06T09:43:41;1.98;;;1.10;;
67554;SDS011;54385;53.516;49.456;2022-09-06T09:52:10;5.60;;;1.90;;
67554;SDS011;54385;53.516;49.456;2022-09-06T09:54:43;1.15;;;0.80;;
67554;SDS011;54385;53.516;49.456;2022-09-06T09:57:24;2.53;;;1.00;;
67554;SDS011;54385;53.516;49.456;2022-09-06T10:00:05;1.70;;;1.30;;
67554;SDS011;54385;53.516;49.456;2022-09-06T10:05:27;2.15;;;1.15;;
67554;SDS011;54385;53.516;49.456;2022-09-06T10:07:54;2.38;;;1.35;;
67554;SDS011;54385;53.516;49.456;2022-09-06T10:10:24;5.95;;;2.72;;
67554;SDS011;54385;53.516;49.456;2022-09-06T10:13:04;6.78;;;2.60;;
67554;SDS011;54385;53.516;49.456;2022-09-06T10:15:50;3.53;;;2.17;;
67554;SDS011;54385;53.516;49.456;2022-09-06T10:21:13;7.15;;;2.70;;
67554;SDS011;54385;53.516;49.456;2022-09-06T10:27:00;6.75;;;4.95;;
67554;SDS011;54385;53.516;49.456;2022-09-06T10:32:48;4.07;;;3.08;;
67554;SDS011;54385;53.516;49.456;2022-09-06T10:35:22;5.88;;;3.55;;
67554;SDS011;54385;53.516;49.456;2022-09-06T10:40:47;6.03;;;3.33;;
67554;SDS011;54385;53.516;49.456;2022-09-06T10:46:43;8.10;;;4.85;;
67554;SDS011;54385;53.516;49.456;2022-09-06T10:49:13;5.50;;;3.83;;
67554;SDS011;54385;53.516;49.456;2022-09-06T10:51:56;8.65;;;4.82;;
67554;SDS011;54385;53.516;49.456;2022-09-06T10:54:26;6.55;;;4.82;;
67554;SDS011;54385;53.516;49.456;2022-09-06T10:56:58;5.35;;;3.42;;
67554;SDS011;54385;53.516;49.456;2022-09-06T10:59:46;7.93;;;3.33;;
67554;SDS011;54385;53.516;49.456;2022-09-06T11:05:10;8.35;;;3.80;;
67554;SDS011;54385;53.516;49.456;2022-09-06T11:08:14;2.83;;;2.05;;
67554;SDS011;54385;53.516;49.456;2022-09-06T11:11:19;4.07;;;2.45;;
67554;SDS011;54385;53.516;49.456;2022-09-06T11:14:08;4.15;;;1.98;;
67554;SDS011;54385;53.516;49.456;2022-09-06T11:16:43;2.60;;;1.73;;
67554;SDS011;54385;53.516;49.456;2022-09-06T11:19:17;3.03;;;1.80;;
67554;SDS011;54385;53.516;49.456;2022-09-06T11:27:43;3.42;;;2.05;;
67554;SDS011;54385;53.516;49.456;2022-09-06T11:30:15;3.67;;;2.15;;
67554;SDS011;54385;53.516;49.456;2022-09-06T11:32:49;3.00;;;1.92;;
67554;SDS011;54385;53.516;49.456;2022-09-06T11:35:35;2.80;;;1.52;;
67554;SDS011;54385;53.516;49.456;2022-09-06T11:40:38;2.75;;;1.63;;
67554;SDS011;54385;53.516;49.456;2022-09-06T11:43:11;2.58;;;1.38;;
67554;SDS011;54385;53.516;49.456;2022-09-06T11:45:50;2.67;;;1.80;;
67554;SDS011;54385;53.516;49.456;2022-09-06T11:51:36;3.00;;;1.38;;
67554;SDS011;54385;53.516;49.456;2022-09-06T11:56:56;2.70;;;1.80;;
67554;SDS011;54385;53.516;49.456;2022-09-06T12:00:02;3.70;;;1.50;;
67554;SDS011;54385;53.516;49.456;2022-09-06T12:02:30;2.28;;;1.48;;
67554;SDS011;54385;53.516;49.456;2022-09-06T12:10:55;2.10;;;1.40;;
67554;SDS011;54385;53.516;49.456;2022-09-06T12:16:12;2.55;;;1.60;;
67554;SDS011;54385;53.516;49.456;2022-09-06T12:18:52;4.72;;;1.70;;
67554;SDS011;54385;53.516;49.456;2022-09-06T12:21:36;1.73;;;1.20;;
67554;SDS011;54385;53.516;49.456;2022-09-06T12:24:59;1.90;;;1.17;;
67554;SDS011;54385;53.516;49.456;2022-09-06T12:27:28;2.10;;;1.17;;
67554;SDS011;54385;53.516;49.456;2022-09-06T12:32:30;2.88;;;1.88;;
67554;SDS011;54385;53.516;49.456;2022-09-06T12:34:58;1.27;;;1.13;;
67554;SDS011;54385;53.516;49.456;2022-09-06T12:37:36;2.58;;;1.42;;
67554;SDS011;54385;53.516;49.456;2022-09-06T12:40:32;4.22;;;1.60;;
67554;SDS011;54385;53.516;49.456;2022-09-06T12:43:03;1.92;;;1.42;;
67554;SDS011;54385;53.516;49.456;2022-09-06T12:45:35;2.42;;;1.60;;
67554;SDS011;54385;53.516;49.456;2022-09-06T12:48:12;2.22;;;1.38;;
67554;SDS011;54385;53.516;49.456;2022-09-06T12:56:27;1.63;;;1.27;;
67554;SDS011;54385;53.516;49.456;2022-09-06T12:59:11;3.38;;;1.90;;
67554;SDS011;54385;53.516;49.456;2022-09-06T13:04:42;3.90;;;2.00;;
67554;SDS011;54385;53.516;49.456;2022-09-06T13:07:13;4.35;;;2.10;;
67554;SDS011;54385;53.516;49.456;2022-09-06T13:09:43;11.32;;;6.40;;
67554;SDS011;54385;53.516;49.456;2022-09-06T13:12:33;34.15;;;20.92;;
67554;SDS011;54385;53.516;49.456;2022-09-06T13:15:20;35.70;;;18.35;;
67554;SDS011;54385;53.516;49.456;2022-09-06T13:17:50;42.90;;;20.52;;
67554;SDS011;54385;53.516;49.456;2022-09-06T13:20:36;38.47;;;18.23;;
67554;SDS011;54385;53.516;49.456;2022-09-06T13:23:09;32.08;;;15.40;;
67554;SDS011;54385;53.516;49.456;2022-09-06T13:25:48;23.00;;;12.13;;
67554;SDS011;54385;53.516;49.456;2022-09-06T13:28:29;23.67;;;12.52;;
67554;SDS011;54385;53.516;49.456;2022-09-06T13:31:39;23.67;;;11.73;;
67554;SDS011;54385;53.516;49.456;2022-09-06T13:33:54;22.80;;;11.73;;
67554;SDS011;54385;53.516;49.456;2022-09-06T13:36:27;27.65;;;12.82;;
67554;SDS011;54385;53.516;49.456;2022-09-06T13:38:58;11.00;;;5.47;;
67554;SDS011;54385;53.516;49.456;2022-09-06T13:41:32;10.18;;;5.80;;
67554;SDS011;54385;53.516;49.456;2022-09-06T13:46:41;6.13;;;3.45;;
67554;SDS011;54385;53.516;49.456;2022-09-06T13:49:07;5.30;;;2.95;;
67554;SDS011;54385;53.516;49.456;2022-09-06T13:51:40;3.97;;;1.58;;
67554;SDS011;54385;53.516;49.456;2022-09-06T13:54:10;3.05;;;1.40;;
67554;SDS011;54385;53.516;49.456;2022-09-06T13:56:41;5.30;;;1.85;;
67554;SDS011;54385;53.516;49.456;2022-09-06T13:59:13;2.28;;;1.20;;
67554;SDS011;54385;53.516;49.456;2022-09-06T14:01:43;2.28;;;1.40;;
67554;SDS011;54385;53.516;49.456;2022-09-06T14:04:13;3.35;;;1.65;;
67554;SDS011;54385;53.516;49.456;2022-09-06T14:06:44;6.88;;;2.30;;
67554;SDS011;54385;53.516;49.456;2022-09-06T14:09:11;2.80;;;1.63;;
67554;SDS011;54385;53.516;49.456;2022-09-06T14:11:37;4.47;;;2.33;;
67554;SDS011;54385;53.516;49.456;2022-09-06T14:14:04;2.63;;;1.48;;
67554;SDS011;54385;53.516;49.456;2022-09-06T14:16:32;2.92;;;1.65;;
67554;SDS011;54385;53.516;49.456;2022-09-06T14:18:59;3.60;;;1.70;;
67554;SDS011;54385;53.516;49.456;2022-09-06T14:21:28;2.35;;;1.50;;
67554;SDS011;54385;53.516;49.456;2022-09-06T14:23:54;2.67;;;1.73;;
67554;SDS011;54385;53.516;49.456;2022-09-06T14:26:24;3.55;;;2.28;;
67554;SDS011;54385;53.516;49.456;2022-09-06T14:28:50;3.88;;;2.10;;
67554;SDS011;54385;53.516;49.456;2022-09-06T14:31:18;3.97;;;2.33;;
67554;SDS011;54385;53.516;49.456;2022-09-06T14:33:46;5.97;;;2.60;;
67554;SDS011;54385;53.516;49.456;2022-09-06T14:36:17;6.18;;;3.60;;
67554;SDS011;54385;53.516;49.456;2022-09-06T14:38:45;7.72;;;3.10;;
67554;SDS011;54385;53.516;49.456;2022-09-06T14:41:13;4.28;;;2.70;;
67554;SDS011;54385;53.516;49.456;2022-09-06T14:43:41;4.57;;;2.80;;
67554;SDS011;54385;53.516;49.456;2022-09-06T14:46:09;2.92;;;2.25;;
67554;SDS011;54385;53.516;49.456;2022-09-06T14:48:38;3.70;;;2.70;;
67554;SDS011;54385;53.516;49.456;2022-09-06T14:51:16;6.70;;;2.78;;
67554;SDS011;54385;53.516;49.456;2022-09-06T14:53:47;5.78;;;3.38;;
67554;SDS011;54385;53.516;49.456;2022-09-06T14:56:15;4.78;;;2.90;;
67554;SDS011;54385;53.516;49.456;2022-09-06T14:58:41;4.05;;;2.47;;
67554;SDS011;54385;53.516;49.456;2022-09-06T15:03:44;3.45;;;1.90;;
67554;SDS011;54385;53.516;49.456;2022-09-06T15:06:21;3.47;;;2.05;;
67554;SDS011;54385;53.516;49.456;2022-09-06T15:08:53;5.13;;;2.60;;
67554;SDS011;54385;53.516;49.456;2022-09-06T15:11:28;4.20;;;2.17;;
67554;SDS011;54385;53.516;49.456;2022-09-06T15:13:57;3.15;;;2.05;;
67554;SDS011;54385;53.516;49.456;2022-09-06T15:16:26;3.35;;;1.80;;
67554;SDS011;54385;53.516;49.456;2022-09-06T15:18:54;3.90;;;1.95;;
67554;SDS011;54385;53.516;49.456;2022-09-06T15:21:23;3.83;;;2.35;;
67554;SDS011;54385;53.516;49.456;2022-09-06T15:23:51;6.18;;;3.92;;
67554;SDS011;54385;53.516;49.456;2022-09-06T15:26:19;4.32;;;2.10;;
67554;SDS011;54385;53.516;49.456;2022-09-06T15:28:51;3.83;;;2.22;;
67554;SDS011;54385;53.516;49.456;2022-09-06T15:31:20;3.25;;;2.10;;
67554;SDS011;54385;53.516;49.456;2022-09-06T15:33:50;2.47;;;1.33;;
67554;SDS011;54385;53.516;49.456;2022-09-06T15:36:17;3.28;;;1.83;;
67554;SDS011;54385;53.516;49.456;2022-09-06T15:38:45;3.00;;;1.70;;
67554;SDS011;54385;53.516;49.456;2022-09-06T15:41:16;4.63;;;1.50;;
67554;SDS011;54385;53.516;49.456;2022-09-06T15:43:48;4.57;;;2.10;;
67554;SDS011;54385;53.516;49.456;2022-09-06T15:46:18;5.47;;;2.28;;
67554;SDS011;54385;53.516;49.456;2022-09-06T15:49:07;2.25;;;1.60;;
67554;SDS011;54385;53.516;49.456;2022-09-06T15:51:35;2.50;;;1.20;;
67554;SDS011;54385;53.516;49.456;2022-09-06T15:54:03;1.55;;;1.00;;
67554;SDS011;54385;53.516;49.456;2022-09-06T15:56:31;1.65;;;1.30;;
67554;SDS011;54385;53.516;49.456;2022-09-06T15:58:58;2.03;;;1.25;;
67554;SDS011;54385;53.516;49.456;2022-09-06T16:03:52;2.75;;;1.20;;
67554;SDS011;54385;53.516;49.456;2022-09-06T16:06:28;2.83;;;1.63;;
67554;SDS011;54385;53.516;49.456;2022-09-06T16:08:57;6.57;;;3.25;;
67554;SDS011;54385;53.516;49.456;2022-09-06T16:11:29;6.32;;;1.98;;
67554;SDS011;54385;53.516;49.456;2022-09-06T16:14:04;2.42;;;1.40;;
67554;SDS011;54385;53.516;49.456;2022-09-06T16:16:32;3.35;;;1.55;;
67554;SDS011;54385;53.516;49.456;2022-09-06T16:19:00;3.15;;;1.75;;
67554;SDS011;54385;53.516;49.456;2022-09-06T16:21:28;2.30;;;1.50;;
67554;SDS011;54385;53.516;49.456;2022-09-06T16:23:57;2.80;;;1.75;;
67554;SDS011;54385;53.516;49.456;2022-09-06T16:26:32;6.13;;;1.92;;
67554;SDS011;54385;53.516;49.456;2022-09-06T16:29:04;5.65;;;2.72;;
67554;SDS011;54385;53.516;49.456;2022-09-06T16:31:31;5.25;;;1.98;;
67554;SDS011;54385;53.516;49.456;2022-09-06T16:33:59;2.10;;;1.30;;
67554;SDS011;54385;53.516;49.456;2022-09-06T16:36:26;2.85;;;1.60;;
67554;SDS011;54385;53.516;49.456;2022-09-06T16:38:53;2.97;;;1.50;;
67554;SDS011;54385;53.516;49.456;2022-09-06T16:43:53;2.45;;;1.30;;
67554;SDS011;54385;53.516;49.456;2022-09-06T16:46:21;2.35;;;1.40;;
67554;SDS011;54385;53.516;49.456;2022-09-06T16:48:49;3.75;;;1.40;;
67554;SDS011;54385;53.516;49.456;2022-09-06T16:51:22;2.90;;;1.25;;
67554;SDS011;54385;53.516;49.456;2022-09-06T16:53:50;4.57;;;1.05;;
67554;SDS011;54385;53.516;49.456;2022-09-06T16:56:27;1.70;;;1.55;;
67554;SDS011;54385;53.516;49.456;2022-09-06T16:58:59;1.38;;;1.13;;
67554;SDS011;54385;53.516;49.456;2022-09-06T17:01:26;1.83;;;1.00;;
67554;SDS011;54385;53.516;49.456;2022-09-06T17:03:54;3.35;;;1.38;;
67554;SDS011;54385;53.516;49.456;2022-09-06T17:06:21;3.05;;;1.50;;
67554;SDS011;54385;53.516;49.456;2022-09-06T17:08:48;3.65;;;1.80;;
67554;SDS011;54385;53.516;49.456;2022-09-06T17:11:17;5.03;;;2.10;;
67554;SDS011;54385;53.516;49.456;2022-09-06T17:13:46;3.05;;;1.73;;
67554;SDS011;54385;53.516;49.456;2022-09-06T17:16:14;2.05;;;1.52;;
67554;SDS011;54385;53.516;49.456;2022-09-06T17:19:00;2.80;;;1.45;;
67554;SDS011;54385;53.516;49.456;2022-09-06T17:21:28;2.33;;;1.70;;
67554;SDS011;54385;53.516;49.456;2022-09-06T17:23:55;2.38;;;1.83;;
67554;SDS011;54385;53.516;49.456;2022-09-06T17:26:26;2.20;;;1.42;;
67554;SDS011;54385;53.516;49.456;2022-09-06T17:28:52;2.80;;;2.00;;
67554;SDS011;54385;53.516;49.456;2022-09-06T17:31:19;3.00;;;1.45;;
67554;SDS011;54385;53.516;49.456;2022-09-06T17:33:46;3.60;;;1.48;;
67554;SDS011;54385;53.516;49.456;2022-09-06T17:36:17;3.45;;;1.27;;
67554;SDS011;54385;53.516;49.456;2022-09-06T17:38:58;2.97;;;1.55;;
67554;SDS011;54385;53.516;49.456;2022-09-06T17:41:45;1.67;;;1.27;;
67554;SDS011;54385;53.516;49.456;2022-09-06T17:44:15;1.98;;;1.30;;
67554;SDS011;54385;53.516;49.456;2022-09-06T17:46:44;2.40;;;1.50;;
67554;SDS011;54385;53.516;49.456;2022-09-06T17:49:11;2.70;;;1.13;;
67554;SDS011;54385;53.516;49.456;2022-09-06T17:51:39;2.50;;;1.05;;
67554;SDS011;54385;53.516;49.456;2022-09-06T17:54:06;2.92;;;1.48;;
67554;SDS011;54385;53.516;49.456;2022-09-06T17:56:34;4.70;;;1.85;;
67554;SDS011;54385;53.516;49.456;2022-09-06T17:59:02;2.90;;;1.58;;
67554;SDS011;54385;53.516;49.456;2022-09-06T18:04:02;5.32;;;1.90;;
67554;SDS011;54385;53.516;49.456;2022-09-06T18:06:30;3.13;;;1.70;;
67554;SDS011;54385;53.516;49.456;2022-09-06T18:09:00;3.03;;;2.25;;
67554;SDS011;54385;53.516;49.456;2022-09-06T18:11:31;3.40;;;1.95;;
67554;SDS011;54385;53.516;49.456;2022-09-06T18:13:59;6.00;;;1.98;;
67554;SDS011;54385;53.516;49.456;2022-09-06T18:16:49;4.13;;;2.10;;
67554;SDS011;54385;53.516;49.456;2022-09-06T18:19:17;6.97;;;3.30;;
67554;SDS011;54385;53.516;49.456;2022-09-06T18:21:43;3.25;;;2.10;;
67554;SDS011;54385;53.516;49.456;2022-09-06T18:24:10;5.22;;;2.15;;
67554;SDS011;54385;53.516;49.456;2022-09-06T18:26:40;4.20;;;2.50;;
67554;SDS011;54385;53.516;49.456;2022-09-06T18:29:08;3.95;;;2.33;;
67554;SDS011;54385;53.516;49.456;2022-09-06T18:31:37;3.92;;;1.90;;
67554;SDS011;54385;53.516;49.456;2022-09-06T18:34:04;4.57;;;2.30;;
67554;SDS011;54385;53.516;49.456;2022-09-06T18:36:32;5.32;;;2.13;;
67554;SDS011;54385;53.516;49.456;2022-09-06T18:39:01;3.97;;;2.13;;
67554;SDS011;54385;53.516;49.456;2022-09-06T18:41:30;2.97;;;1.40;;
67554;SDS011;54385;53.516;49.456;2022-09-06T18:44:15;3.10;;;1.85;;
67554;SDS011;54385;53.516;49.456;2022-09-06T18:46:42;2.60;;;1.63;;
67554;SDS011;54385;53.516;49.456;2022-09-06T18:49:09;6.22;;;2.35;;
67554;SDS011;54385;53.516;49.456;2022-09-06T18:51:38;3.53;;;1.90;;
67554;SDS011;54385;53.516;49.456;2022-09-06T18:54:05;3.13;;;1.58;;
67554;SDS011;54385;53.516;49.456;2022-09-06T18:59:02;2.40;;;1.73;;
67554;SDS011;54385;53.516;49.456;2022-09-06T19:01:30;3.70;;;1.73;;